Towanda, Illinois
Current Conditions -  °F | °C
As of 2:56 AM on Wednesday 22 Oct 2014 (Local Time) from KBMI Reporting Station
Clear Clear  
Wind Chill: 37°   Ceiling: Unl
Heat Index: 40°   Visibility: 10mi
Dew Point: 37°   Wind: 5mph
Humidity: 89%   Direction: 50°NE
Pressure: 30.27"   Gusts: NA
Location:  40.56°N, 88.9°W
Report Text: KBMI 220756Z AUTO 05004KT 10SM CLR 04/03 A3027 RMK AO2 T00440027 SLP255
Loading
Personal Weather Stations






























Interactive Weather Map
Tropical Storm Tracking
New forecast layout! Learn more

10-Day Weather Forecast

Advertisements
Track Severe Weather on mobile